Time;durP1;ratioP1;P1;durP2;ratioP2;P2;SDS_P1;SDS_P2;PMS_P1;PMS_P2;Temp;Humidity;BMP_temperature;BMP_pressure;BME280_temperature;BME280_humidity;BME280_pressure;Samples;Min_cycle;Max_cycle;Signal;HPM_P1;HPM_P2
2022/04/12 00:01:06;;;;;;;;;2.00;2.00;;;;;17.08;52.66;100388.38;5000993;28;45468;-60
2022/04/12 00:03:32;;;;;;;;;2.50;2.50;;;;;17.08;52.98;100391.03;4992859;28;45381;-60
2022/04/12 00:05:58;;;;;;;;;4.50;3.50;;;;;17.08;52.66;100390.22;4992873;28;45466;-60
2022/04/12 00:08:24;;;;;;;;;4.00;3.00;;;;;17.06;52.87;100382.34;5001684;28;45428;-60
2022/04/12 00:10:50;;;;;;;;;3.50;3.25;;;;;17.04;52.94;100373.66;5001246;28;46158;-60
2022/04/12 00:13:18;;;;;;;;;3.50;3.00;;;;;17.03;52.95;100383.47;5001363;28;45219;-60
2022/04/12 00:15:44;;;;;;;;;3.00;1.50;;;;;17.04;53.14;100384.31;5001092;28;45529;-60
2022/04/12 00:20:54;;;;;;;;;3.00;2.75;;;;;17.01;53.11;100381.94;5000968;28;45523;-60
2022/04/12 00:23:19;;;;;;;;;3.50;3.50;;;;;17.00;53.21;100377.59;5001048;28;45471;-60
2022/04/12 00:25:45;;;;;;;;;4.00;3.25;;;;;16.98;53.24;100384.88;5001696;28;45436;-60
2022/04/12 00:28:13;;;;;;;;;4.00;3.00;;;;;16.95;53.29;100388.66;5001405;28;45631;-60
2022/04/12 00:30:38;;;;;;;;;5.00;4.00;;;;;16.93;53.35;100389.78;5001017;28;45352;-59
2022/04/12 00:33:04;;;;;;;;;5.50;4.00;;;;;16.91;53.51;100391.75;5001432;28;45246;-60
2022/04/12 00:35:30;;;;;;;;;3.00;3.00;;;;;16.90;53.53;100395.38;5001538;28;45238;-60
2022/04/12 00:37:56;;;;;;;;;4.00;2.50;;;;;16.88;53.49;100394.69;5001284;28;45412;-60
2022/04/12 00:40:26;;;;;;;;;4.00;4.00;;;;;16.87;53.60;100395.66;5001031;28;45443;-60
2022/04/12 00:42:53;;;;;;;;;3.00;3.00;;;;;16.83;53.62;100386.28;4998519;28;45519;-60
2022/04/12 00:45:20;;;;;;;;;4.50;4.00;;;;;16.82;53.62;100388.09;5000999;28;45220;-60
2022/04/12 00:47:46;;;;;;;;;4.00;4.00;;;;;16.78;53.96;100384.03;5001151;28;46536;-60
2022/04/12 00:50:13;;;;;;;;;6.00;5.00;;;;;16.74;53.92;100387.94;5000827;28;45360;-59
2022/04/12 00:52:49;;;;;;;;;5.75;4.00;;;;;16.71;53.89;100374.94;5000966;28;45497;-59
2022/04/12 00:55:15;;;;;;;;;3.75;2.75;;;;;16.66;54.08;100377.97;4995755;28;45336;-59
2022/04/12 00:57:41;;;;;;;;;2.75;2.75;;;;;16.64;54.01;100376.44;5001187;28;45535;-60
2022/04/12 01:00:09;;;;;;;;;4.00;3.50;;;;;16.63;54.10;100372.09;5000690;28;45206;-60
2022/04/12 01:02:36;;;;;;;;;5.00;3.75;;;;;16.60;54.30;100375.03;5001033;28;45477;-60
2022/04/12 01:05:03;;;;;;;;;5.00;4.75;;;;;16.59;54.34;100374.22;5001044;28;45483;-60
2022/04/12 01:07:30;;;;;;;;;3.00;3.00;;;;;16.55;54.30;100367.47;5001198;28;45472;-60
2022/04/12 01:09:56;;;;;;;;;2.75;2.75;;;;;16.52;54.37;100375.72;5000912;28;45488;-60
2022/04/12 01:12:22;;;;;;;;;4.75;4.75;;;;;16.50;54.32;100371.50;5000894;28;45443;-60
2022/04/12 01:14:48;;;;;;;;;3.00;3.00;;;;;16.47;54.57;100376.13;5000541;28;45244;-60
2022/04/12 01:17:15;;;;;;;;;3.25;3.00;;;;;16.44;54.62;100359.63;5000992;28;45312;-60
2022/04/12 01:19:41;;;;;;;;;4.00;4.00;;;;;16.40;54.49;100353.72;5000696;28;45407;-60
2022/04/12 01:22:15;;;;;;;;;3.00;3.00;;;;;16.35;54.69;100353.31;5000875;28;45250;-60
2022/04/12 01:24:41;;;;;;;;;4.00;4.00;;;;;16.32;54.69;100366.88;4999348;28;45308;-61
2022/04/12 01:27:06;;;;;;;;;4.00;4.00;;;;;16.32;54.75;100366.03;5000947;28;45219;-62
2022/04/12 01:29:36;;;;;;;;;3.50;3.50;;;;;16.30;54.92;100363.50;5000475;28;45334;-61
2022/04/12 01:32:07;;;;;;;;;3.75;3.75;;;;;16.29;55.28;100372.47;5000386;28;45550;-61
2022/04/12 01:34:33;;;;;;;;;5.00;3.00;;;;;16.25;55.26;100367.56;4997991;28;45309;-61
2022/04/12 01:36:59;;;;;;;;;6.50;5.25;;;;;16.23;54.89;100359.72;5000545;28;45776;-61
2022/04/12 01:39:24;;;;;;;;;3.00;3.00;;;;;16.20;55.17;100360.00;5000197;28;45478;-61
2022/04/12 01:41:50;;;;;;;;;3.00;3.00;;;;;16.19;55.20;100369.78;5000493;28;45386;-61
2022/04/12 01:44:15;;;;;;;;;3.00;3.00;;;;;16.15;55.22;100356.91;5000555;28;45257;-61
2022/04/12 01:46:41;;;;;;;;;3.25;3.00;;;;;16.13;55.36;100361.53;5000287;28;45238;-60
2022/04/12 01:49:06;;;;;;;;;7.25;4.25;;;;;16.10;55.45;100367.94;4999401;28;45654;-61
2022/04/12 01:51:32;;;;;;;;;4.00;4.00;;;;;16.09;55.64;100376.03;5000187;28;45385;-60
2022/04/12 01:53:57;;;;;;;;;1.00;1.00;;;;;16.04;55.60;100384.44;5000523;28;45247;-60
2022/04/12 01:56:24;;;;;;;;;3.50;3.50;;;;;16.01;55.60;100387.34;5000502;28;45254;-60
2022/04/12 01:58:49;;;;;;;;;5.75;3.00;;;;;15.98;55.95;100384.97;5000168;28;45374;-60
2022/04/12 02:01:15;;;;;;;;;3.25;3.00;;;;;15.95;55.97;100385.22;4999867;28;45412;-60
2022/04/12 02:03:40;;;;;;;;;4.25;3.00;;;;;15.93;55.72;100376.53;5000269;28;45246;-60
2022/04/12 02:06:06;;;;;;;;;5.00;3.00;;;;;15.90;55.88;100374.16;5001761;28;45573;-61
2022/04/12 02:08:31;;;;;;;;;3.25;2.75;;;;;15.88;55.96;100370.81;5003360;28;45532;-61
2022/04/12 02:10:57;;;;;;;;;4.25;3.75;;;;;15.86;55.98;100375.41;5003717;28;45291;-61
2022/04/12 02:13:23;;;;;;;;;3.50;2.00;;;;;15.85;55.80;100369.25;5003778;28;45361;-61
2022/04/12 02:15:48;;;;;;;;;5.50;4.00;;;;;15.84;55.92;100367.56;5003169;28;45603;-61
2022/04/12 02:18:14;;;;;;;;;2.25;1.00;;;;;15.82;55.82;100366.03;5002458;28;46473;-60
2022/04/12 02:20:39;;;;;;;;;3.00;3.00;;;;;15.79;55.86;100356.50;5003536;28;45412;-60
2022/04/12 02:23:05;;;;;;;;;1.50;1.50;;;;;15.76;55.77;100353.28;5003587;28;45521;-60
2022/04/12 02:25:30;;;;;;;;;5.25;3.25;;;;;15.73;55.88;100353.56;5003640;28;45604;-60
2022/04/12 02:27:56;;;;;;;;;3.75;3.00;;;;;15.70;56.17;100345.84;5003243;28;45489;-60
2022/04/12 02:30:21;;;;;;;;;3.00;3.00;;;;;15.66;56.07;100350.59;5002867;28;45531;-60
2022/04/12 02:32:46;;;;;;;;;4.50;3.00;;;;;15.63;56.12;100345.53;5003536;28;45508;-60
2022/04/12 02:35:12;;;;;;;;;3.00;3.00;;;;;15.61;56.34;100352.78;5003453;28;45642;-60
2022/04/12 02:37:38;;;;;;;;;3.00;3.00;;;;;15.56;56.47;100344.34;5003094;28;46019;-60
2022/04/12 02:40:04;;;;;;;;;6.00;3.00;;;;;15.58;56.10;100350.38;5002972;28;45897;-60
2022/04/12 02:42:30;;;;;;;;;5.25;4.00;;;;;15.57;56.19;100362.81;5003125;28;45239;-60
2022/04/12 02:44:55;;;;;;;;;3.00;2.50;;;;;15.58;56.43;100372.47;5002988;28;45562;-60
2022/04/12 02:47:25;;;;;;;;;5.00;3.00;;;;;15.59;56.35;100365.34;5002870;28;45526;-60
2022/04/12 02:49:52;;;;;;;;;5.25;4.00;;;;;15.59;56.48;100365.34;5002976;28;45397;-60
2022/04/12 02:52:18;;;;;;;;;3.25;3.25;;;;;15.59;55.88;100362.66;5003066;28;45446;-60
2022/04/12 02:54:43;;;;;;;;;3.75;2.75;;;;;15.54;56.10;100362.22;5003348;28;45401;-60
2022/04/12 02:57:09;;;;;;;;;4.25;3.00;;;;;15.55;56.07;100370.03;5002668;28;45248;-60
2022/04/12 02:59:35;;;;;;;;;5.00;4.00;;;;;15.56;56.01;100363.78;5002591;28;45261;-60
2022/04/12 03:09:18;;;;;;;;;4.75;3.50;;;;;15.56;55.79;100355.81;5000002;28;71834;-60
2022/04/12 03:11:44;;;;;;;;;5.75;3.50;;;;;15.56;56.00;100345.19;5002856;28;45281;-60
2022/04/12 03:14:09;;;;;;;;;3.50;2.00;;;;;15.53;55.50;100334.84;5002744;28;45261;-60
2022/04/12 03:16:35;;;;;;;;;2.75;2.50;;;;;15.50;55.52;100327.16;5001898;28;46215;-60
2022/04/12 03:19:00;;;;;;;;;5.75;2.25;;;;;15.49;55.70;100321.97;5002454;28;45531;-60
2022/04/12 03:21:26;;;;;;;;;3.25;2.00;;;;;15.47;55.56;100327.38;5002727;28;45430;-61
2022/04/12 03:23:52;;;;;;;;;4.75;3.00;;;;;15.47;55.65;100326.56;5002580;28;45459;-61
2022/04/12 03:26:17;;;;;;;;;0.00;0.00;;;;;15.44;55.34;100313.56;5002606;28;46171;-61
2022/04/12 03:28:43;;;;;;;;;4.25;2.00;;;;;15.41;55.41;100319.97;5002431;28;45420;-61
2022/04/12 03:31:08;;;;;;;;;4.00;3.25;;;;;15.39;55.37;100329.03;5002272;28;45491;-61
2022/04/12 03:33:34;;;;;;;;;2.00;2.00;;;;;15.39;55.32;100324.56;5002408;28;45756;-61
2022/04/12 03:35:59;;;;;;;;;4.75;4.00;;;;;15.40;55.15;100328.06;5001683;28;46103;-61
2022/04/12 03:38:25;;;;;;;;;1.00;1.00;;;;;15.35;55.28;100321.34;5001928;28;45444;-61
2022/04/12 03:40:51;;;;;;;;;4.50;3.50;;;;;15.34;54.96;100326.78;5002232;28;45316;-61
2022/04/12 03:43:17;;;;;;;;;5.50;4.50;;;;;15.34;55.37;100329.44;5002338;28;45253;-61
2022/04/12 03:45:42;;;;;;;;;2.00;2.00;;;;;15.30;55.13;100334.16;5001945;28;45400;-61
2022/04/12 03:48:08;;;;;;;;;5.00;3.00;;;;;15.31;54.85;100348.25;5002041;28;45326;-61
2022/04/12 03:50:34;;;;;;;;;6.00;3.00;;;;;15.31;54.75;100362.38;5002192;28;45290;-61
2022/04/12 03:53:01;;;;;;;;;4.50;3.25;;;;;15.31;54.82;100361.53;5002272;28;45446;-61
2022/04/12 03:55:30;;;;;;;;;2.00;1.75;;;;;15.30;55.15;100350.06;4984182;28;46358;-61
2022/04/12 03:58:03;;;;;;;;;2.75;2.75;;;;;15.27;54.66;100349.50;5001832;28;45294;-61
2022/04/12 04:00:29;;;;;;;;;3.00;2.75;;;;;15.27;54.83;100342.38;5001749;28;45565;-60
2022/04/12 04:02:55;;;;;;;;;4.50;3.00;;;;;15.28;54.69;100338.75;5001967;28;45567;-61
2022/04/12 04:05:22;;;;;;;;;3.25;1.75;;;;;15.29;54.56;100343.09;5001969;28;46146;-61
2022/04/12 04:07:48;;;;;;;;;2.75;2.75;;;;;15.28;54.17;100332.59;5001772;28;45409;-61
2022/04/12 04:10:13;;;;;;;;;2.00;2.00;;;;;15.26;54.20;100330.09;5001694;28;45436;-61
2022/04/12 04:12:39;;;;;;;;;4.00;4.00;;;;;15.26;53.95;100331.91;5002025;28;45347;-59
2022/04/12 04:15:11;;;;;;;;;3.50;2.00;;;;;15.25;54.06;100339.03;5001476;28;45373;-59
2022/04/12 04:17:38;;;;;;;;;0.00;0.00;;;;;15.21;53.89;100337.59;5001550;28;45460;-59
2022/04/12 04:20:04;;;;;;;;;2.75;2.00;;;;;15.20;54.09;100343.88;5001680;28;45241;-59
2022/04/12 04:22:30;;;;;;;;;3.50;2.50;;;;;15.22;53.78;100349.03;5001766;28;45309;-59
2022/04/12 04:24:55;;;;;;;;;2.00;1.25;;;;;15.22;53.79;100338.44;5001496;28;45351;-61
2022/04/12 04:27:23;;;;;;;;;3.75;2.00;;;;;15.21;53.96;100342.06;5001503;28;45265;-60
2022/04/12 04:29:48;;;;;;;;;3.50;2.25;;;;;15.20;54.02;100340.38;5000592;28;45688;-60
2022/04/12 04:32:14;;;;;;;;;7.50;2.00;;;;;15.19;53.67;100350.16;5001371;28;45399;-59
2022/04/12 04:34:39;;;;;;;;;3.00;3.00;;;;;15.18;53.79;100350.28;5001421;28;46183;-59
2022/04/12 04:37:05;;;;;;;;;4.00;3.00;;;;;15.16;53.61;100338.94;5001330;28;45438;-60
2022/04/12 04:39:30;;;;;;;;;2.00;1.50;;;;;15.13;54.07;100349.81;5001557;28;45400;-59
2022/04/12 04:41:56;;;;;;;;;4.25;2.75;;;;;15.09;53.71;100357.22;5001387;28;45428;-60
2022/04/12 04:44:21;;;;;;;;;4.00;3.00;;;;;15.06;53.60;100355.66;5001306;28;45896;-59
2022/04/12 04:46:47;;;;;;;;;3.00;3.00;;;;;15.05;53.82;100358.44;5000962;28;45423;-60
2022/04/12 04:49:12;;;;;;;;;2.25;2.25;;;;;15.01;53.77;100362.31;5001448;28;45381;-60
2022/04/12 04:51:41;;;;;;;;;1.75;1.75;;;;;14.99;53.75;100358.94;5001247;28;45426;-60
2022/04/12 04:54:07;;;;;;;;;3.00;1.75;;;;;14.96;53.81;100359.22;5001098;28;46724;-60
2022/04/12 04:56:32;;;;;;;;;4.00;2.00;;;;;14.94;53.91;100369.13;5000928;28;45344;-60
2022/04/12 04:58:58;;;;;;;;;3.00;3.00;;;;;14.92;54.04;100365.72;5001329;28;45389;-61
2022/04/12 05:01:24;;;;;;;;;4.50;3.00;;;;;14.87;54.20;100358.16;4996476;28;45246;-60
2022/04/12 05:03:52;;;;;;;;;2.50;2.50;;;;;14.87;54.04;100365.28;4999481;28;45406;-60
2022/04/12 05:06:18;;;;;;;;;3.00;3.00;;;;;14.84;54.20;100369.00;4998255;28;45330;-60
2022/04/12 05:08:44;;;;;;;;;2.00;2.00;;;;;14.84;53.83;100358.41;5000504;28;45317;-60
2022/04/12 05:11:09;;;;;;;;;4.25;3.25;;;;;14.84;54.00;100370.81;5000966;28;45474;-60
2022/04/12 05:13:35;;;;;;;;;3.50;2.75;;;;;14.82;53.83;100363.00;5000736;28;45368;-60
2022/04/12 05:16:00;;;;;;;;;6.00;3.75;;;;;14.79;54.20;100377.38;5000419;28;45356;-60
2022/04/12 05:18:26;;;;;;;;;4.00;3.00;;;;;14.79;54.23;100389.78;5001020;28;45285;-60
2022/04/12 05:20:52;;;;;;;;;5.25;3.00;;;;;14.75;54.32;100383.88;5000956;28;45435;-60
2022/04/12 05:23:18;;;;;;;;;4.50;3.75;;;;;14.76;54.23;100395.31;4997931;28;46580;-60
2022/04/12 05:25:43;;;;;;;;;4.25;2.00;;;;;14.76;54.30;100392.66;5000782;28;45454;-60
2022/04/12 05:28:08;;;;;;;;;5.00;3.00;;;;;14.76;54.37;100393.50;5000855;28;45543;-60
2022/04/12 05:30:34;;;;;;;;;5.75;3.25;;;;;14.76;54.48;100390.00;5000106;28;45467;-60
2022/04/12 05:33:00;;;;;;;;;3.50;3.00;;;;;14.76;54.36;100395.31;5000557;28;45292;-60
2022/04/12 05:35:25;;;;;;;;;4.25;3.75;;;;;14.76;54.34;100403.28;5000519;28;45245;-60
2022/04/12 05:37:52;;;;;;;;;4.25;3.75;;;;;14.77;54.53;100400.53;5000638;28;45335;-60
2022/04/12 05:40:20;;;;;;;;;3.00;3.00;;;;;14.79;54.52;100401.22;5000190;28;47027;-60
2022/04/12 05:42:46;;;;;;;;;6.25;6.00;;;;;14.84;54.36;100402.63;4997944;28;45703;-60
2022/04/12 05:45:13;;;;;;;;;6.25;3.50;;;;;14.85;54.08;100388.41;4999710;28;45466;-70
2022/04/12 05:47:46;;;;;;;;;8.25;4.00;;;;;14.89;54.61;100388.03;5000388;28;45235;-65
2022/04/12 05:50:14;;;;;;;;;6.25;4.25;;;;;14.94;54.02;100395.63;5000252;28;45456;-65
2022/04/12 05:52:40;;;;;;;;;3.00;3.00;;;;;15.02;54.31;100398.50;5000116;28;45375;-64
2022/04/12 05:55:17;;;;;;;;;5.50;4.00;;;;;15.08;53.97;100401.44;5000198;28;45222;-64
2022/04/12 05:57:55;;;;;;;;;4.00;3.00;;;;;15.19;53.70;100413.00;5000273;28;45361;-65
2022/04/12 06:00:22;;;;;;;;;6.75;4.00;;;;;15.28;53.77;100409.56;4999944;28;45431;-63
2022/04/12 06:02:48;;;;;;;;;3.00;3.00;;;;;15.36;54.02;100409.75;5000132;28;45981;-63
2022/04/12 06:05:14;;;;;;;;;6.50;4.00;;;;;15.44;53.54;100409.94;4999898;28;45258;-64
2022/04/12 06:07:42;;;;;;;;;4.75;4.00;;;;;15.48;53.28;100411.38;4999779;28;45219;-65
2022/04/12 06:10:09;;;;;;;;;5.50;4.75;;;;;15.48;53.35;100419.34;5000089;28;45646;-66
2022/04/12 06:12:35;;;;;;;;;3.00;3.00;;;;;15.44;53.23;100419.72;4997066;28;45392;-63
2022/04/12 06:15:00;;;;;;;;;6.25;5.00;;;;;15.45;53.12;100414.28;4999303;28;45450;-61
2022/04/12 06:17:33;;;;;;;;;6.75;4.00;;;;;15.55;53.36;100422.31;4992749;28;45405;-61
2022/04/12 06:20:01;;;;;;;;;8.75;3.75;;;;;15.68;53.21;100416.84;5000270;28;45583;-61
2022/04/12 06:22:27;;;;;;;;;4.50;4.00;;;;;15.88;52.83;100421.28;4999558;28;46413;-62
2022/04/12 06:24:52;;;;;;;;;5.25;4.00;;;;;16.04;52.38;100421.63;5000390;28;45365;-62
2022/04/12 06:27:18;;;;;;;;;5.00;2.50;;;;;16.16;52.41;100427.69;5000502;28;45283;-61
2022/04/12 06:29:43;;;;;;;;;3.50;3.00;;;;;16.25;51.82;100436.66;5000152;28;45218;-62
2022/04/12 06:32:09;;;;;;;;;4.00;3.00;;;;;16.28;51.64;100439.91;4999718;28;46370;-62
2022/04/12 06:34:34;;;;;;;;;7.75;4.00;;;;;16.34;51.38;100433.19;4999946;28;45222;-61
2022/04/12 06:37:00;;;;;;;;;4.00;4.00;;;;;16.37;51.18;100428.44;4999925;28;45289;-62
2022/04/12 06:39:25;;;;;;;;;4.00;4.00;;;;;16.38;51.22;100445.25;5000268;28;45349;-62
2022/04/12 06:41:51;;;;;;;;;3.50;2.75;;;;;16.39;51.12;100449.56;4999721;28;46045;-62
2022/04/12 06:44:16;;;;;;;;;8.25;5.50;;;;;16.41;50.98;100455.59;4999854;28;45237;-62
2022/04/12 06:46:42;;;;;;;;;4.00;4.00;;;;;16.42;50.86;100455.44;5000122;28;45229;-62
2022/04/12 06:49:07;;;;;;;;;8.50;6.75;;;;;16.50;50.76;100459.25;4990394;28;45593;-63
2022/04/12 06:51:33;;;;;;;;;8.00;7.50;;;;;16.61;50.61;100465.31;4999989;28;45424;-62
2022/04/12 06:53:58;;;;;;;;;4.25;4.00;;;;;16.71;50.21;100458.22;5002310;28;45323;-64
2022/04/12 06:56:26;;;;;;;;;7.25;4.00;;;;;16.76;50.15;100470.28;5003201;28;45329;-65
2022/04/12 06:58:51;;;;;;;;;4.50;4.25;;;;;16.81;49.99;100473.34;5002951;28;45473;-64
2022/04/12 07:01:17;;;;;;;;;10.25;6.50;;;;;16.84;50.00;100484.59;5002380;28;46068;-63
2022/04/12 07:03:42;;;;;;;;;9.75;5.50;;;;;16.90;49.99;100494.66;5003188;28;45349;-62
2022/04/12 07:06:08;;;;;;;;;4.00;3.00;;;;;16.91;49.25;100501.69;5003140;28;45459;-63
2022/04/12 07:08:33;;;;;;;;;6.00;4.00;;;;;16.90;49.50;100502.63;5003318;28;45242;-68
2022/04/12 07:10:59;;;;;;;;;6.00;4.50;;;;;16.95;49.21;100497.75;5002662;28;45945;-68
2022/04/12 07:13:25;;;;;;;;;7.75;3.75;;;;;16.98;48.99;100484.19;5002905;28;45208;-65
2022/04/12 07:15:50;;;;;;;;;6.50;5.25;;;;;17.00;48.97;100497.34;5002705;28;45483;-64
2022/04/12 07:18:16;;;;;;;;;7.25;4.00;;;;;17.06;49.02;100509.25;5002887;28;45575;-66
2022/04/12 07:20:41;;;;;;;;;6.25;4.00;;;;;17.07;49.02;100514.44;5002517;28;45316;-66
2022/04/12 07:23:07;;;;;;;;;4.00;3.75;;;;;17.06;49.10;100525.22;5001755;28;45287;-64
2022/04/12 07:25:32;;;;;;;;;5.50;4.25;;;;;17.09;48.98;100522.28;5001779;28;45336;-71
2022/04/12 07:27:57;;;;;;;;;5.00;2.50;;;;;17.13;48.84;100523.69;5002303;28;45857;-69
2022/04/12 07:30:23;;;;;;;;;8.25;7.75;;;;;17.17;48.50;100511.78;5001783;28;45999;-68
2022/04/12 07:32:48;;;;;;;;;3.50;3.00;;;;;17.18;48.76;100511.66;5002100;28;45457;-67
2022/04/12 07:35:14;;;;;;;;;6.50;4.00;;;;;17.24;48.15;100515.59;5002292;28;45542;-64
2022/04/12 07:37:43;;;;;;;;;3.00;3.00;;;;;17.28;48.14;100515.16;4999694;28;45316;-67
2022/04/12 07:40:09;;;;;;;;;5.00;4.00;;;;;17.36;48.21;100522.44;5001863;28;45474;-69
2022/04/12 07:42:35;;;;;;;;;4.25;2.75;;;;;17.42;48.25;100516.56;5001727;28;45433;-64
2022/04/12 07:45:01;;;;;;;;;2.50;2.50;;;;;17.49;48.13;100511.53;5001669;28;45183;-69
2022/04/12 07:47:26;;;;;;;;;2.75;2.75;;;;;17.54;47.65;100502.13;4998612;28;45448;-68
2022/04/12 07:49:51;;;;;;;;;5.25;5.25;;;;;17.63;47.58;100504.94;5001725;28;45632;-69
2022/04/12 07:52:17;;;;;;;;;3.25;3.25;;;;;17.67;47.38;100498.31;5001033;28;45269;-69
2022/04/12 07:54:42;;;;;;;;;4.75;2.00;;;;;17.71;47.16;100511.25;5001362;28;45277;-65
2022/04/12 07:57:08;;;;;;;;;13.00;7.50;;;;;17.77;47.46;100520.47;5001421;28;45562;-65
2022/04/12 07:59:33;;;;;;;;;243.33;110.00;;;;;17.80;46.86;100514.88;5001026;28;45273;-65
2022/04/12 08:01:59;;;;;;;;;11.75;5.75;;;;;17.80;47.25;100506.91;5001238;28;45479;-65
2022/04/12 08:04:24;;;;;;;;;7.75;5.00;;;;;17.84;47.15;100506.44;5000477;28;45316;-64
2022/04/12 08:06:50;;;;;;;;;9.75;4.25;;;;;17.87;46.82;100500.00;5001732;28;45326;-66
2022/04/12 08:09:15;;;;;;;;;2.50;2.50;;;;;17.93;46.81;100509.22;5001481;28;45445;-64
2022/04/12 08:11:41;;;;;;;;;7.75;4.50;;;;;17.99;46.92;100493.50;5001378;28;45381;-64
2022/04/12 08:14:06;;;;;;;;;6.25;2.25;;;;;18.10;46.98;100498.69;5001319;28;45310;-64
2022/04/12 08:16:32;;;;;;;;;5.00;4.00;;;;;18.19;46.45;100490.81;5000462;28;45478;-63
2022/04/12 08:18:58;;;;;;;;;4.75;3.50;;;;;18.25;46.21;100492.88;5001122;28;45440;-63
2022/04/12 08:21:35;;;;;;;;;3.50;2.75;;;;;18.29;46.17;100499.59;5001380;28;45217;-63
2022/04/12 08:24:00;;;;;;;;;2.50;2.00;;;;;18.37;46.08;100491.69;4996142;28;45255;-62
2022/04/12 08:26:26;;;;;;;;;4.25;4.00;;;;;18.44;46.76;100492.78;5001300;28;45334;-63
2022/04/12 08:28:52;;;;;;;;;5.00;3.75;;;;;18.54;46.46;100498.91;5001202;28;45345;-66
2022/04/12 08:31:17;;;;;;;;;6.00;4.00;;;;;18.58;46.07;100497.63;5000697;28;45235;-64
2022/04/12 08:33:43;;;;;;;;;6.00;2.00;;;;;18.62;45.53;100507.00;5001557;28;45432;-64
2022/04/12 08:36:08;;;;;;;;;7.00;5.00;;;;;18.68;45.93;100506.47;5002075;28;45398;-64
2022/04/12 08:38:33;;;;;;;;;5.00;4.00;;;;;18.71;45.52;100499.13;5000999;28;46162;-64
2022/04/12 08:41:01;;;;;;;;;3.50;2.25;;;;;18.78;45.26;100494.88;4998913;28;45737;-64
2022/04/12 08:43:29;;;;;;;;;6.50;2.75;;;;;18.87;45.71;100496.66;4999431;28;45745;-64
2022/04/12 08:45:55;;;;;;;;;5.25;3.00;;;;;18.99;45.63;100492.78;5000597;28;45365;-64
2022/04/12 08:48:22;;;;;;;;;5.00;5.00;;;;;19.04;45.46;100495.84;5000756;28;45411;-64
2022/04/12 08:50:49;;;;;;;;;5.25;4.00;;;;;19.13;44.69;100496.78;4998420;28;45443;-64
2022/04/12 08:53:17;;;;;;;;;4.25;2.75;;;;;19.22;44.85;100499.38;4994843;28;45499;-64
2022/04/12 08:55:43;;;;;;;;;6.00;2.50;;;;;19.30;44.52;100498.59;5001546;28;45457;-64
2022/04/12 08:58:09;;;;;;;;;4.75;3.00;;;;;19.32;44.83;100498.44;5001601;28;46057;-64
2022/04/12 09:00:34;;;;;;;;;2.00;2.00;;;;;19.33;44.46;100490.28;5001242;28;45326;-63
2022/04/12 09:03:00;;;;;;;;;3.50;1.75;;;;;19.41;44.95;100500.19;5001727;28;45320;-64
2022/04/12 09:05:27;;;;;;;;;3.00;2.50;;;;;19.49;44.27;100502.94;5002032;28;45271;-64
2022/04/12 09:07:52;;;;;;;;;3.00;3.00;;;;;19.49;44.23;100506.44;4983845;28;46288;-64
2022/04/12 09:10:19;;;;;;;;;4.00;2.00;;;;;19.45;44.00;100501.56;5001343;28;45410;-64
2022/04/12 09:12:45;;;;;;;;;3.00;2.00;;;;;19.46;43.81;100497.91;5001756;28;45277;-64
2022/04/12 09:15:14;;;;;;;;;4.50;2.00;;;;;19.47;43.82;100495.06;5000809;28;45346;-64
2022/04/12 09:17:41;;;;;;;;;3.75;2.75;;;;;19.52;43.61;100495.47;4993017;28;45356;-64
2022/04/12 09:20:19;;;;;;;;;4.00;0.50;;;;;19.59;43.94;100482.34;5001292;28;45179;-64
2022/04/12 09:22:45;;;;;;;;;2.50;1.00;;;;;19.68;43.34;100491.28;5001329;28;45335;-64
2022/04/12 09:25:13;;;;;;;;;2.50;0.75;;;;;19.76;43.56;100491.34;5001598;28;45423;-64
2022/04/12 09:27:40;;;;;;;;;2.75;2.00;;;;;19.84;43.21;100488.72;5000893;28;45567;-63
2022/04/12 09:30:08;;;;;;;;;3.00;3.00;;;;;19.92;43.40;100491.44;5000699;28;45487;-64
2022/04/12 09:32:39;;;;;;;;;3.00;2.50;;;;;20.04;43.11;100482.13;5001041;28;45320;-64
2022/04/12 09:35:06;;;;;;;;;3.75;1.75;;;;;20.18;43.23;100479.88;5001477;28;45456;-64
2022/04/12 09:37:34;;;;;;;;;1.75;1.75;;;;;20.32;43.13;100480.13;5000775;28;46298;-63
2022/04/12 09:39:59;;;;;;;;;3.50;2.50;;;;;20.40;43.10;100482.00;5000750;28;45269;-64
2022/04/12 09:42:48;;;;;;;;;1.00;1.00;;;;;20.46;42.73;100477.84;5000999;28;45313;-64
2022/04/12 09:45:23;;;;;;;;;4.00;1.75;;;;;20.57;42.77;100474.91;5000809;28;45309;-63
2022/04/12 09:47:50;;;;;;;;;4.00;2.00;;;;;20.67;42.34;100480.13;5000697;28;45262;-63
2022/04/12 09:50:20;;;;;;;;;3.00;1.75;;;;;20.76;42.61;100484.50;5000772;28;45472;-64
2022/04/12 09:53:12;;;;;;;;;5.50;1.75;;;;;20.85;42.51;100483.50;5000650;28;45420;-63
2022/04/12 09:55:45;;;;;;;;;1.75;1.50;;;;;20.81;41.96;100472.31;4984352;28;45592;-64
2022/04/12 09:58:16;;;;;;;;;4.75;1.00;;;;;20.78;42.40;100469.13;5000622;28;46202;-64
2022/04/12 10:00:47;;;;;;;;;3.25;1.00;;;;;20.76;42.31;100465.75;4979482;28;45330;-64
2022/04/12 10:03:15;;;;;;;;;2.50;2.00;;;;;20.77;42.04;100465.56;4996444;28;45159;-64
2022/04/12 10:05:43;;;;;;;;;6.00;2.50;;;;;20.77;41.73;100465.56;5000964;28;45335;-63
2022/04/12 10:08:10;;;;;;;;;3.25;2.00;;;;;20.80;41.67;100475.16;5000145;28;45262;-64
2022/04/12 10:10:36;;;;;;;;;4.75;2.00;;;;;20.86;42.21;100479.84;5000525;28;45291;-64
2022/04/12 10:13:02;;;;;;;;;2.00;2.00;;;;;20.93;41.80;100459.41;5000222;28;45399;-64
2022/04/12 10:15:28;;;;;;;;;2.75;2.75;;;;;21.02;41.83;100458.47;4999973;28;45329;-64
2022/04/12 10:17:55;;;;;;;;;3.75;1.25;;;;;21.01;41.55;100453.25;5000074;28;45392;-63
2022/04/12 10:20:22;;;;;;;;;1.25;1.25;;;;;20.99;41.83;100447.22;5000013;28;45297;-63
2022/04/12 10:22:49;;;;;;;;;2.00;1.00;;;;;21.06;41.79;100437.53;5000041;28;45258;-63
2022/04/12 10:25:17;;;;;;;;;2.00;1.50;;;;;21.11;41.63;100424.47;5000117;28;45511;-64
2022/04/12 10:27:43;;;;;;;;;3.25;1.00;;;;;21.15;41.78;100431.16;5001532;28;45448;-64
2022/04/12 10:30:25;;;;;;;;;2.25;2.00;;;;;21.12;41.57;100420.81;5002787;28;45400;-63
2022/04/12 10:33:09;;;;;;;;;2.00;2.00;;;;;21.11;41.74;100425.31;4982433;28;45274;-63
2022/04/12 10:35:55;;;;;;;;;2.25;2.00;;;;;21.18;41.58;100420.97;4998261;28;45244;-63
2022/04/12 10:38:23;;;;;;;;;3.75;2.00;;;;;21.23;42.05;100423.13;4984395;28;45470;-63
2022/04/12 10:40:51;;;;;;;;;4.75;3.00;;;;;21.28;41.57;100418.16;5002654;28;45356;-64
2022/04/12 10:43:38;;;;;;;;;2.00;2.00;;;;;21.25;41.71;100414.91;5003331;28;45326;-64
2022/04/12 10:46:07;;;;;;;;;3.00;2.25;;;;;21.15;41.47;100429.31;5003160;28;45199;-64
2022/04/12 10:48:34;;;;;;;;;3.00;3.00;;;;;21.05;41.46;100431.34;5003119;28;45389;-64
2022/04/12 10:51:01;;;;;;;;;2.00;2.00;;;;;21.01;42.09;100446.03;5003339;28;45278;-64
2022/04/12 10:53:36;;;;;;;;;4.00;2.00;;;;;21.08;42.16;100448.91;5003286;28;45319;-64
2022/04/12 10:56:05;;;;;;;;;3.00;2.00;;;;;21.21;41.91;100441.22;5003341;28;45356;-64
2022/04/12 10:58:35;;;;;;;;;3.25;3.00;;;;;21.43;42.01;100447.78;5002706;28;45482;-64
2022/04/12 11:01:01;;;;;;;;;5.50;3.75;;;;;21.62;41.76;100441.22;4981631;28;45431;-64
2022/04/12 11:03:43;;;;;;;;;4.00;2.75;;;;;21.71;41.47;100442.88;5000528;28;45314;-64
2022/04/12 11:06:22;;;;;;;;;3.75;3.50;;;;;21.76;41.22;100459.31;5003294;28;45396;-64
2022/04/12 11:08:50;;;;;;;;;2.50;2.50;;;;;21.79;41.37;100474.22;5002686;28;45374;-64
2022/04/12 11:11:21;;;;;;;;;5.00;3.00;;;;;21.80;41.26;100468.66;5002906;28;45301;-64
2022/04/12 11:13:49;;;;;;;;;4.50;3.00;;;;;21.85;41.64;100471.69;5002856;28;45317;-64
2022/04/12 11:16:19;;;;;;;;;4.25;2.00;;;;;21.82;41.22;100482.78;5002162;28;45234;-64
2022/04/12 11:18:53;;;;;;;;;5.50;3.00;;;;;21.75;41.14;100489.81;5002648;28;46479;-64
2022/04/12 11:21:22;;;;;;;;;3.00;3.00;;;;;21.75;41.75;100495.19;5002841;28;45584;-63
2022/04/12 11:23:56;;;;;;;;;8.00;2.00;;;;;21.80;41.32;100495.50;5003152;28;45242;-64
2022/04/12 11:26:35;;;;;;;;;4.25;2.00;;;;;21.81;40.95;100485.63;5003203;28;45432;-64
2022/04/12 11:29:01;;;;;;;;;3.50;3.00;;;;;21.85;41.84;100497.66;5002744;28;45377;-64
2022/04/12 11:31:27;;;;;;;;;2.75;2.75;;;;;21.89;41.34;100494.50;5001474;28;45351;-64
2022/04/12 11:33:53;;;;;;;;;2.25;1.50;;;;;21.87;41.07;100495.66;4983428;28;45284;-64